TS42 weather

Bexar Metro Medical Heliport
San Antonio, Texas, United States

Public forecast

Using degrees Fahrenheit for public forecast. Weather courtesy of forecast.io.

METAR (pilot weather report)

Closest report is San Antonio International Airport, 6.5 nm (12.0 km) ESE. Retrieved 2019/07/22 08:51 UTC (52 minutes ago):

KSAT 220851Z 16008KT 10SM FEW015 FEW250 25/22 A2998 RMK AO2 SLP132 T02500217 50002 $

TAF (pilot weather forecast)

Closest forecast is San Antonio International Airport, 6.5 nm (12.0 km) ESE. Retrieved 2019/07/22 06:39 UTC (3 hours ago):

TAF KSAT 220536Z 2206/2312 14010KT P6SM BKN025 FM221000 17005KT P6SM BKN015 FM221400 17006KT P6SM SCT250 FM230900 VRB03KT P6SM VCSH SCT050 SCT250